sensor_id;sensor_type;location;lat;lon;timestamp;P1;durP1;ratioP1;P2;durP2;ratioP2
53718;SDS011;39616;48.872;9.390;2023-03-01T00:00:28;28.23;;;13.90;;
53718;SDS011;39616;48.872;9.390;2023-03-01T00:02:58;29.95;;;14.30;;
53718;SDS011;39616;48.872;9.390;2023-03-01T00:05:29;26.20;;;13.75;;
53718;SDS011;39616;48.872;9.390;2023-03-01T00:07:59;33.58;;;14.38;;
53718;SDS011;39616;48.872;9.390;2023-03-01T00:10:29;29.60;;;13.13;;
53718;SDS011;39616;48.872;9.390;2023-03-01T00:13:00;29.98;;;12.88;;
53718;SDS011;39616;48.872;9.390;2023-03-01T00:15:30;30.83;;;13.70;;
53718;SDS011;39616;48.872;9.390;2023-03-01T00:18:01;27.50;;;12.75;;
53718;SDS011;39616;48.872;9.390;2023-03-01T00:20:31;27.70;;;12.57;;
53718;SDS011;39616;48.872;9.390;2023-03-01T00:23:02;25.98;;;12.73;;
53718;SDS011;39616;48.872;9.390;2023-03-01T00:25:32;27.20;;;12.75;;
53718;SDS011;39616;48.872;9.390;2023-03-01T00:28:03;25.05;;;11.70;;
53718;SDS011;39616;48.872;9.390;2023-03-01T00:30:33;28.10;;;13.10;;
53718;SDS011;39616;48.872;9.390;2023-03-01T00:33:03;28.40;;;13.20;;
53718;SDS011;39616;48.872;9.390;2023-03-01T00:35:34;28.98;;;13.02;;
53718;SDS011;39616;48.872;9.390;2023-03-01T00:38:05;30.20;;;13.65;;
53718;SDS011;39616;48.872;9.390;2023-03-01T00:40:35;24.45;;;11.48;;
53718;SDS011;39616;48.872;9.390;2023-03-01T00:43:06;31.73;;;12.63;;
53718;SDS011;39616;48.872;9.390;2023-03-01T00:45:36;28.48;;;13.60;;
53718;SDS011;39616;48.872;9.390;2023-03-01T00:48:07;27.63;;;11.55;;
53718;SDS011;39616;48.872;9.390;2023-03-01T00:50:37;27.48;;;13.10;;
53718;SDS011;39616;48.872;9.390;2023-03-01T00:53:07;24.15;;;12.23;;
53718;SDS011;39616;48.872;9.390;2023-03-01T00:55:38;23.55;;;11.65;;
53718;SDS011;39616;48.872;9.390;2023-03-01T00:58:08;26.73;;;11.82;;
53718;SDS011;39616;48.872;9.390;2023-03-01T01:00:38;28.83;;;12.60;;
53718;SDS011;39616;48.872;9.390;2023-03-01T01:03:08;30.13;;;13.38;;
53718;SDS011;39616;48.872;9.390;2023-03-01T01:05:39;24.38;;;12.10;;
53718;SDS011;39616;48.872;9.390;2023-03-01T01:08:09;29.70;;;13.52;;
53718;SDS011;39616;48.872;9.390;2023-03-01T01:10:39;29.30;;;13.38;;
53718;SDS011;39616;48.872;9.390;2023-03-01T01:13:10;29.25;;;13.85;;
53718;SDS011;39616;48.872;9.390;2023-03-01T01:15:41;27.13;;;14.07;;
53718;SDS011;39616;48.872;9.390;2023-03-01T01:18:11;27.73;;;12.98;;
53718;SDS011;39616;48.872;9.390;2023-03-01T01:20:41;27.52;;;12.90;;
53718;SDS011;39616;48.872;9.390;2023-03-01T01:23:11;28.10;;;12.93;;
53718;SDS011;39616;48.872;9.390;2023-03-01T01:25:42;28.75;;;12.63;;
53718;SDS011;39616;48.872;9.390;2023-03-01T01:28:12;22.90;;;12.63;;
53718;SDS011;39616;48.872;9.390;2023-03-01T01:30:42;29.17;;;13.63;;
53718;SDS011;39616;48.872;9.390;2023-03-01T01:33:13;28.92;;;13.23;;
53718;SDS011;39616;48.872;9.390;2023-03-01T01:35:44;25.40;;;11.95;;
53718;SDS011;39616;48.872;9.390;2023-03-01T01:38:15;26.80;;;12.57;;
53718;SDS011;39616;48.872;9.390;2023-03-01T01:40:46;35.30;;;13.45;;
53718;SDS011;39616;48.872;9.390;2023-03-01T01:43:24;27.05;;;12.82;;
53718;SDS011;39616;48.872;9.390;2023-03-01T01:45:59;31.52;;;13.73;;
53718;SDS011;39616;48.872;9.390;2023-03-01T01:48:34;29.83;;;13.43;;
53718;SDS011;39616;48.872;9.390;2023-03-01T01:51:13;27.48;;;12.93;;
53718;SDS011;39616;48.872;9.390;2023-03-01T01:53:50;26.90;;;12.57;;
53718;SDS011;39616;48.872;9.390;2023-03-01T01:56:23;25.05;;;12.90;;
53718;SDS011;39616;48.872;9.390;2023-03-01T01:58:55;26.20;;;13.23;;
53718;SDS011;39616;48.872;9.390;2023-03-01T02:01:26;28.38;;;12.00;;
53718;SDS011;39616;48.872;9.390;2023-03-01T02:03:57;26.55;;;13.45;;
53718;SDS011;39616;48.872;9.390;2023-03-01T02:06:29;26.27;;;14.10;;
53718;SDS011;39616;48.872;9.390;2023-03-01T02:09:07;29.52;;;14.15;;
53718;SDS011;39616;48.872;9.390;2023-03-01T02:11:43;27.48;;;12.27;;
53718;SDS011;39616;48.872;9.390;2023-03-01T02:14:14;30.05;;;14.85;;
53718;SDS011;39616;48.872;9.390;2023-03-01T02:16:45;31.17;;;13.65;;
53718;SDS011;39616;48.872;9.390;2023-03-01T02:19:19;31.33;;;13.05;;
53718;SDS011;39616;48.872;9.390;2023-03-01T02:30:20;29.98;;;14.30;;
53718;SDS011;39616;48.872;9.390;2023-03-01T02:32:52;29.90;;;13.80;;
53718;SDS011;39616;48.872;9.390;2023-03-01T02:35:26;27.08;;;14.27;;
53718;SDS011;39616;48.872;9.390;2023-03-01T02:37:57;30.83;;;14.05;;
53718;SDS011;39616;48.872;9.390;2023-03-01T02:40:30;29.30;;;15.27;;
53718;SDS011;39616;48.872;9.390;2023-03-01T02:43:03;27.67;;;14.25;;
53718;SDS011;39616;48.872;9.390;2023-03-01T02:45:38;26.05;;;13.63;;
53718;SDS011;39616;48.872;9.390;2023-03-01T02:48:17;28.20;;;14.02;;
53718;SDS011;39616;48.872;9.390;2023-03-01T02:56:45;31.13;;;12.63;;
53718;SDS011;39616;48.872;9.390;2023-03-01T02:59:20;26.42;;;12.82;;
53718;SDS011;39616;48.872;9.390;2023-03-01T03:01:53;26.48;;;13.27;;
53718;SDS011;39616;48.872;9.390;2023-03-01T03:04:23;28.40;;;13.88;;
53718;SDS011;39616;48.872;9.390;2023-03-01T03:06:54;29.25;;;14.20;;
53718;SDS011;39616;48.872;9.390;2023-03-01T03:09:24;30.02;;;14.57;;
53718;SDS011;39616;48.872;9.390;2023-03-01T03:11:54;29.40;;;13.90;;
53718;SDS011;39616;48.872;9.390;2023-03-01T03:14:25;31.88;;;15.02;;
53718;SDS011;39616;48.872;9.390;2023-03-01T03:16:55;28.65;;;14.13;;
53718;SDS011;39616;48.872;9.390;2023-03-01T03:19:25;27.50;;;14.40;;
53718;SDS011;39616;48.872;9.390;2023-03-01T03:21:56;29.27;;;13.00;;
53718;SDS011;39616;48.872;9.390;2023-03-01T03:24:26;29.27;;;13.77;;
53718;SDS011;39616;48.872;9.390;2023-03-01T03:26:58;25.83;;;12.80;;
53718;SDS011;39616;48.872;9.390;2023-03-01T03:29:28;29.48;;;15.05;;
53718;SDS011;39616;48.872;9.390;2023-03-01T03:31:59;28.98;;;13.70;;
53718;SDS011;39616;48.872;9.390;2023-03-01T03:34:29;28.60;;;13.50;;
53718;SDS011;39616;48.872;9.390;2023-03-01T03:37:00;36.47;;;15.50;;
53718;SDS011;39616;48.872;9.390;2023-03-01T03:39:30;32.30;;;14.15;;
53718;SDS011;39616;48.872;9.390;2023-03-01T03:42:04;29.23;;;13.82;;
53718;SDS011;39616;48.872;9.390;2023-03-01T03:44:34;32.63;;;15.38;;
53718;SDS011;39616;48.872;9.390;2023-03-01T03:47:06;29.17;;;13.55;;
53718;SDS011;39616;48.872;9.390;2023-03-01T03:49:36;29.13;;;14.57;;
53718;SDS011;39616;48.872;9.390;2023-03-01T03:52:06;29.98;;;14.50;;
53718;SDS011;39616;48.872;9.390;2023-03-01T03:54:43;30.27;;;13.77;;
53718;SDS011;39616;48.872;9.390;2023-03-01T03:57:13;26.08;;;13.52;;
53718;SDS011;39616;48.872;9.390;2023-03-01T03:59:43;30.08;;;14.57;;
53718;SDS011;39616;48.872;9.390;2023-03-01T04:02:14;28.30;;;12.88;;
53718;SDS011;39616;48.872;9.390;2023-03-01T04:04:51;26.65;;;13.70;;
53718;SDS011;39616;48.872;9.390;2023-03-01T04:07:22;27.48;;;12.90;;
53718;SDS011;39616;48.872;9.390;2023-03-01T04:09:52;27.35;;;12.70;;
53718;SDS011;39616;48.872;9.390;2023-03-01T04:12:22;28.98;;;14.38;;
53718;SDS011;39616;48.872;9.390;2023-03-01T04:14:53;28.20;;;13.35;;
53718;SDS011;39616;48.872;9.390;2023-03-01T04:17:23;28.50;;;14.00;;
53718;SDS011;39616;48.872;9.390;2023-03-01T04:19:53;27.40;;;14.07;;
53718;SDS011;39616;48.872;9.390;2023-03-01T04:22:23;32.28;;;14.82;;
53718;SDS011;39616;48.872;9.390;2023-03-01T04:24:59;28.88;;;13.77;;
53718;SDS011;39616;48.872;9.390;2023-03-01T04:27:36;29.85;;;13.95;;
53718;SDS011;39616;48.872;9.390;2023-03-01T04:30:07;26.63;;;13.27;;
53718;SDS011;39616;48.872;9.390;2023-03-01T04:32:38;24.45;;;13.32;;
53718;SDS011;39616;48.872;9.390;2023-03-01T04:35:09;28.67;;;14.70;;
53718;SDS011;39616;48.872;9.390;2023-03-01T04:37:39;31.13;;;13.95;;
53718;SDS011;39616;48.872;9.390;2023-03-01T04:40:11;27.05;;;14.38;;
53718;SDS011;39616;48.872;9.390;2023-03-01T04:42:46;29.83;;;14.95;;
53718;SDS011;39616;48.872;9.390;2023-03-01T04:45:17;30.08;;;14.25;;
53718;SDS011;39616;48.872;9.390;2023-03-01T04:47:47;29.67;;;13.73;;
53718;SDS011;39616;48.872;9.390;2023-03-01T04:50:18;27.45;;;13.90;;
53718;SDS011;39616;48.872;9.390;2023-03-01T04:52:53;32.95;;;14.57;;
53718;SDS011;39616;48.872;9.390;2023-03-01T04:55:28;33.60;;;15.30;;
53718;SDS011;39616;48.872;9.390;2023-03-01T04:57:59;30.65;;;14.70;;
53718;SDS011;39616;48.872;9.390;2023-03-01T05:00:29;29.27;;;13.45;;
53718;SDS011;39616;48.872;9.390;2023-03-01T05:03:00;31.13;;;14.90;;
53718;SDS011;39616;48.872;9.390;2023-03-01T05:05:32;29.83;;;13.77;;
53718;SDS011;39616;48.872;9.390;2023-03-01T05:08:05;33.72;;;14.98;;
53718;SDS011;39616;48.872;9.390;2023-03-01T05:10:38;33.63;;;15.40;;
53718;SDS011;39616;48.872;9.390;2023-03-01T05:13:08;30.75;;;13.98;;
53718;SDS011;39616;48.872;9.390;2023-03-01T05:15:39;31.73;;;14.65;;
53718;SDS011;39616;48.872;9.390;2023-03-01T05:18:09;31.90;;;15.80;;
53718;SDS011;39616;48.872;9.390;2023-03-01T05:20:41;30.80;;;14.35;;
53718;SDS011;39616;48.872;9.390;2023-03-01T05:23:11;32.35;;;14.63;;
53718;SDS011;39616;48.872;9.390;2023-03-01T05:25:42;31.58;;;15.32;;
53718;SDS011;39616;48.872;9.390;2023-03-01T05:28:12;33.95;;;15.48;;
53718;SDS011;39616;48.872;9.390;2023-03-01T05:30:43;36.45;;;14.88;;
53718;SDS011;39616;48.872;9.390;2023-03-01T05:33:13;30.92;;;14.50;;
53718;SDS011;39616;48.872;9.390;2023-03-01T05:35:44;30.67;;;15.10;;
53718;SDS011;39616;48.872;9.390;2023-03-01T05:38:15;30.95;;;15.68;;
53718;SDS011;39616;48.872;9.390;2023-03-01T05:40:46;38.88;;;15.90;;
53718;SDS011;39616;48.872;9.390;2023-03-01T05:43:18;33.78;;;15.95;;
53718;SDS011;39616;48.872;9.390;2023-03-01T05:45:48;28.80;;;14.85;;
53718;SDS011;39616;48.872;9.390;2023-03-01T05:48:19;32.60;;;15.20;;
53718;SDS011;39616;48.872;9.390;2023-03-01T05:50:51;36.03;;;16.17;;
53718;SDS011;39616;48.872;9.390;2023-03-01T05:53:22;31.67;;;14.05;;
53718;SDS011;39616;48.872;9.390;2023-03-01T05:55:52;30.50;;;14.88;;
53718;SDS011;39616;48.872;9.390;2023-03-01T05:58:22;29.77;;;15.25;;
53718;SDS011;39616;48.872;9.390;2023-03-01T06:00:54;36.10;;;15.27;;
53718;SDS011;39616;48.872;9.390;2023-03-01T06:03:24;31.00;;;15.57;;
53718;SDS011;39616;48.872;9.390;2023-03-01T06:05:57;29.35;;;15.23;;
53718;SDS011;39616;48.872;9.390;2023-03-01T06:08:28;31.60;;;14.90;;
53718;SDS011;39616;48.872;9.390;2023-03-01T06:10:58;33.40;;;15.52;;
53718;SDS011;39616;48.872;9.390;2023-03-01T06:13:29;31.63;;;14.02;;
53718;SDS011;39616;48.872;9.390;2023-03-01T06:15:59;30.15;;;15.05;;
53718;SDS011;39616;48.872;9.390;2023-03-01T06:18:30;30.63;;;15.32;;
53718;SDS011;39616;48.872;9.390;2023-03-01T06:21:00;30.05;;;14.20;;
53718;SDS011;39616;48.872;9.390;2023-03-01T06:23:30;29.90;;;14.77;;
53718;SDS011;39616;48.872;9.390;2023-03-01T06:26:04;32.40;;;15.35;;
53718;SDS011;39616;48.872;9.390;2023-03-01T06:28:37;31.17;;;14.57;;
53718;SDS011;39616;48.872;9.390;2023-03-01T06:31:07;32.38;;;15.15;;
53718;SDS011;39616;48.872;9.390;2023-03-01T06:33:41;33.85;;;15.52;;
53718;SDS011;39616;48.872;9.390;2023-03-01T06:36:11;34.05;;;16.50;;
53718;SDS011;39616;48.872;9.390;2023-03-01T06:38:41;36.10;;;16.20;;
53718;SDS011;39616;48.872;9.390;2023-03-01T06:41:13;31.83;;;14.70;;
53718;SDS011;39616;48.872;9.390;2023-03-01T06:43:43;32.58;;;14.80;;
53718;SDS011;39616;48.872;9.390;2023-03-01T06:46:13;27.80;;;14.60;;
53718;SDS011;39616;48.872;9.390;2023-03-01T06:48:43;31.65;;;14.88;;
53718;SDS011;39616;48.872;9.390;2023-03-01T06:51:14;38.50;;;16.77;;
53718;SDS011;39616;48.872;9.390;2023-03-01T06:53:45;30.10;;;15.70;;
53718;SDS011;39616;48.872;9.390;2023-03-01T06:56:16;41.58;;;16.70;;
53718;SDS011;39616;48.872;9.390;2023-03-01T06:58:46;34.00;;;15.32;;
53718;SDS011;39616;48.872;9.390;2023-03-01T07:01:16;35.08;;;17.10;;
53718;SDS011;39616;48.872;9.390;2023-03-01T07:03:46;36.42;;;16.15;;
53718;SDS011;39616;48.872;9.390;2023-03-01T07:06:17;32.25;;;15.85;;
53718;SDS011;39616;48.872;9.390;2023-03-01T07:08:47;37.90;;;16.05;;
53718;SDS011;39616;48.872;9.390;2023-03-01T07:11:17;38.88;;;16.33;;
53718;SDS011;39616;48.872;9.390;2023-03-01T07:13:48;35.72;;;15.68;;
53718;SDS011;39616;48.872;9.390;2023-03-01T07:16:18;36.50;;;16.98;;
53718;SDS011;39616;48.872;9.390;2023-03-01T07:18:50;30.65;;;15.48;;
53718;SDS011;39616;48.872;9.390;2023-03-01T07:21:20;33.53;;;14.63;;
53718;SDS011;39616;48.872;9.390;2023-03-01T07:23:50;35.70;;;15.27;;
53718;SDS011;39616;48.872;9.390;2023-03-01T07:26:21;34.58;;;15.25;;
53718;SDS011;39616;48.872;9.390;2023-03-01T07:28:51;32.92;;;16.13;;
53718;SDS011;39616;48.872;9.390;2023-03-01T07:31:21;30.08;;;15.23;;
53718;SDS011;39616;48.872;9.390;2023-03-01T07:33:52;34.67;;;15.05;;
53718;SDS011;39616;48.872;9.390;2023-03-01T07:36:22;36.72;;;15.77;;
53718;SDS011;39616;48.872;9.390;2023-03-01T07:38:52;34.00;;;15.43;;
53718;SDS011;39616;48.872;9.390;2023-03-01T07:41:25;30.83;;;14.75;;
53718;SDS011;39616;48.872;9.390;2023-03-01T07:43:55;34.55;;;15.38;;
53718;SDS011;39616;48.872;9.390;2023-03-01T07:46:26;30.25;;;14.77;;
53718;SDS011;39616;48.872;9.390;2023-03-01T07:48:56;31.58;;;15.52;;
53718;SDS011;39616;48.872;9.390;2023-03-01T07:51:27;34.10;;;15.55;;
53718;SDS011;39616;48.872;9.390;2023-03-01T07:53:58;34.65;;;15.70;;
53718;SDS011;39616;48.872;9.390;2023-03-01T07:56:28;34.40;;;14.52;;
53718;SDS011;39616;48.872;9.390;2023-03-01T07:58:59;33.50;;;15.35;;
53718;SDS011;39616;48.872;9.390;2023-03-01T08:01:29;31.30;;;15.20;;
53718;SDS011;39616;48.872;9.390;2023-03-01T08:03:59;31.38;;;14.63;;
53718;SDS011;39616;48.872;9.390;2023-03-01T08:06:30;30.45;;;14.70;;
53718;SDS011;39616;48.872;9.390;2023-03-01T08:09:01;32.38;;;14.45;;
53718;SDS011;39616;48.872;9.390;2023-03-01T08:11:32;28.88;;;14.55;;
53718;SDS011;39616;48.872;9.390;2023-03-01T08:14:02;28.33;;;14.70;;
53718;SDS011;39616;48.872;9.390;2023-03-01T08:16:32;27.55;;;14.40;;
53718;SDS011;39616;48.872;9.390;2023-03-01T08:19:05;31.55;;;14.93;;
53718;SDS011;39616;48.872;9.390;2023-03-01T08:21:37;30.65;;;14.60;;
53718;SDS011;39616;48.872;9.390;2023-03-01T08:24:08;30.88;;;14.65;;
53718;SDS011;39616;48.872;9.390;2023-03-01T08:26:40;34.08;;;15.38;;
53718;SDS011;39616;48.872;9.390;2023-03-01T08:29:10;33.42;;;15.75;;
53718;SDS011;39616;48.872;9.390;2023-03-01T08:31:41;28.83;;;13.77;;
53718;SDS011;39616;48.872;9.390;2023-03-01T08:34:12;31.10;;;14.45;;
53718;SDS011;39616;48.872;9.390;2023-03-01T08:36:44;29.35;;;14.63;;
53718;SDS011;39616;48.872;9.390;2023-03-01T08:39:16;27.52;;;13.30;;
53718;SDS011;39616;48.872;9.390;2023-03-01T08:41:49;28.58;;;14.68;;
53718;SDS011;39616;48.872;9.390;2023-03-01T08:44:19;29.27;;;14.95;;
53718;SDS011;39616;48.872;9.390;2023-03-01T08:46:50;29.58;;;14.85;;
53718;SDS011;39616;48.872;9.390;2023-03-01T08:49:22;37.97;;;14.15;;
53718;SDS011;39616;48.872;9.390;2023-03-01T08:51:53;26.05;;;14.10;;
53718;SDS011;39616;48.872;9.390;2023-03-01T08:54:24;25.42;;;12.88;;
53718;SDS011;39616;48.872;9.390;2023-03-01T08:56:54;29.98;;;13.90;;
53718;SDS011;39616;48.872;9.390;2023-03-01T08:59:25;29.25;;;14.27;;
53718;SDS011;39616;48.872;9.390;2023-03-01T09:01:56;25.90;;;13.30;;
53718;SDS011;39616;48.872;9.390;2023-03-01T09:04:26;28.58;;;14.02;;
53718;SDS011;39616;48.872;9.390;2023-03-01T09:06:56;27.77;;;13.88;;
53718;SDS011;39616;48.872;9.390;2023-03-01T09:09:27;29.48;;;13.70;;
53718;SDS011;39616;48.872;9.390;2023-03-01T09:11:57;27.98;;;12.82;;
53718;SDS011;39616;48.872;9.390;2023-03-01T09:14:27;28.15;;;13.27;;
53718;SDS011;39616;48.872;9.390;2023-03-01T09:16:58;28.15;;;14.00;;
53718;SDS011;39616;48.872;9.390;2023-03-01T09:19:28;25.13;;;13.02;;
53718;SDS011;39616;48.872;9.390;2023-03-01T09:21:59;26.55;;;14.27;;
53718;SDS011;39616;48.872;9.390;2023-03-01T09:24:29;23.95;;;13.10;;
53718;SDS011;39616;48.872;9.390;2023-03-01T09:26:59;30.05;;;13.82;;
53718;SDS011;39616;48.872;9.390;2023-03-01T09:29:30;23.98;;;12.13;;
53718;SDS011;39616;48.872;9.390;2023-03-01T09:32:01;23.65;;;12.98;;
53718;SDS011;39616;48.872;9.390;2023-03-01T09:34:31;25.65;;;14.52;;
53718;SDS011;39616;48.872;9.390;2023-03-01T09:37:01;25.40;;;12.68;;
53718;SDS011;39616;48.872;9.390;2023-03-01T09:39:32;28.75;;;13.98;;
53718;SDS011;39616;48.872;9.390;2023-03-01T09:42:02;25.55;;;12.32;;
53718;SDS011;39616;48.872;9.390;2023-03-01T09:44:42;22.35;;;13.00;;
53718;SDS011;39616;48.872;9.390;2023-03-01T09:47:35;24.63;;;12.68;;
53718;SDS011;39616;48.872;9.390;2023-03-01T09:52:41;26.48;;;12.57;;
53718;SDS011;39616;48.872;9.390;2023-03-01T09:55:33;21.83;;;12.07;;
53718;SDS011;39616;48.872;9.390;2023-03-01T10:01:49;25.73;;;13.88;;
53718;SDS011;39616;48.872;9.390;2023-03-01T10:09:56;23.77;;;12.85;;
53718;SDS011;39616;48.872;9.390;2023-03-01T10:12:32;22.55;;;12.73;;
53718;SDS011;39616;48.872;9.390;2023-03-01T10:15:19;21.10;;;11.25;;
53718;SDS011;39616;48.872;9.390;2023-03-01T10:18:00;22.10;;;11.55;;
53718;SDS011;39616;48.872;9.390;2023-03-01T10:23:08;22.60;;;11.90;;
53718;SDS011;39616;48.872;9.390;2023-03-01T10:28:30;21.35;;;12.65;;
53718;SDS011;39616;48.872;9.390;2023-03-01T10:31:25;22.83;;;12.57;;
53718;SDS011;39616;48.872;9.390;2023-03-01T10:34:10;26.08;;;11.38;;
53718;SDS011;39616;48.872;9.390;2023-03-01T10:36:43;23.38;;;11.77;;
53718;SDS011;39616;48.872;9.390;2023-03-01T10:39:18;23.40;;;12.45;;
53718;SDS011;39616;48.872;9.390;2023-03-01T10:42:00;25.38;;;12.13;;
53718;SDS011;39616;48.872;9.390;2023-03-01T10:44:40;23.35;;;11.88;;
53718;SDS011;39616;48.872;9.390;2023-03-01T10:47:17;22.27;;;11.55;;
53718;SDS011;39616;48.872;9.390;2023-03-01T10:50:00;22.73;;;11.70;;
53718;SDS011;39616;48.872;9.390;2023-03-01T10:52:34;22.13;;;11.20;;
53718;SDS011;39616;48.872;9.390;2023-03-01T10:55:29;22.23;;;12.15;;
53718;SDS011;39616;48.872;9.390;2023-03-01T10:58:07;19.42;;;10.15;;
53718;SDS011;39616;48.872;9.390;2023-03-01T11:00:51;22.33;;;11.85;;
53718;SDS011;39616;48.872;9.390;2023-03-01T11:03:33;20.08;;;11.68;;
53718;SDS011;39616;48.872;9.390;2023-03-01T11:08:46;19.80;;;10.93;;
53718;SDS011;39616;48.872;9.390;2023-03-01T11:11:21;19.90;;;10.85;;
53718;SDS011;39616;48.872;9.390;2023-03-01T11:13:58;18.90;;;10.80;;
53718;SDS011;39616;48.872;9.390;2023-03-01T11:16:32;19.67;;;11.32;;
53718;SDS011;39616;48.872;9.390;2023-03-01T11:21:41;18.48;;;10.25;;
53718;SDS011;39616;48.872;9.390;2023-03-01T11:24:17;20.13;;;10.45;;
53718;SDS011;39616;48.872;9.390;2023-03-01T11:26:51;22.25;;;11.45;;
53718;SDS011;39616;48.872;9.390;2023-03-01T11:29:27;24.27;;;12.18;;
53718;SDS011;39616;48.872;9.390;2023-03-01T11:32:21;22.17;;;10.63;;
53718;SDS011;39616;48.872;9.390;2023-03-01T11:34:59;22.10;;;11.40;;
53718;SDS011;39616;48.872;9.390;2023-03-01T11:37:43;18.33;;;9.93;;
53718;SDS011;39616;48.872;9.390;2023-03-01T11:40:25;24.13;;;11.63;;
53718;SDS011;39616;48.872;9.390;2023-03-01T11:54:19;18.48;;;10.75;;
53718;SDS011;39616;48.872;9.390;2023-03-01T12:03:13;18.08;;;9.48;;
53718;SDS011;39616;48.872;9.390;2023-03-01T12:14:59;19.92;;;9.88;;
53718;SDS011;39616;48.872;9.390;2023-03-01T12:20:34;16.40;;;9.52;;
53718;SDS011;39616;48.872;9.390;2023-03-01T12:31:16;17.10;;;9.15;;
53718;SDS011;39616;48.872;9.390;2023-03-01T12:37:25;17.85;;;10.38;;
53718;SDS011;39616;48.872;9.390;2023-03-01T12:48:22;18.63;;;9.57;;
53718;SDS011;39616;48.872;9.390;2023-03-01T12:51:02;20.10;;;10.80;;
53718;SDS011;39616;48.872;9.390;2023-03-01T12:53:47;18.55;;;10.57;;
53718;SDS011;39616;48.872;9.390;2023-03-01T12:56:21;21.20;;;11.15;;
53718;SDS011;39616;48.872;9.390;2023-03-01T13:04:28;22.40;;;11.95;;
53718;SDS011;39616;48.872;9.390;2023-03-01T13:10:26;21.63;;;11.43;;
53718;SDS011;39616;48.872;9.390;2023-03-01T13:13:14;19.05;;;11.43;;
53718;SDS011;39616;48.872;9.390;2023-03-01T13:15:49;22.08;;;12.02;;
53718;SDS011;39616;48.872;9.390;2023-03-01T13:20:55;22.83;;;12.23;;
53718;SDS011;39616;48.872;9.390;2023-03-01T13:23:29;22.58;;;11.60;;
53718;SDS011;39616;48.872;9.390;2023-03-01T13:26:13;19.38;;;10.98;;
53718;SDS011;39616;48.872;9.390;2023-03-01T13:33:50;22.35;;;13.10;;
53718;SDS011;39616;48.872;9.390;2023-03-01T13:38:59;20.60;;;11.73;;
53718;SDS011;39616;48.872;9.390;2023-03-01T13:41:52;22.05;;;12.27;;
53718;SDS011;39616;48.872;9.390;2023-03-01T13:46:56;23.15;;;12.95;;
53718;SDS011;39616;48.872;9.390;2023-03-01T13:49:33;25.67;;;12.68;;
53718;SDS011;39616;48.872;9.390;2023-03-01T13:57:48;23.88;;;13.30;;
53718;SDS011;39616;48.872;9.390;2023-03-01T14:00:44;25.52;;;12.75;;
53718;SDS011;39616;48.872;9.390;2023-03-01T14:03:15;22.92;;;12.43;;
53718;SDS011;39616;48.872;9.390;2023-03-01T14:05:58;22.83;;;13.02;;
53718;SDS011;39616;48.872;9.390;2023-03-01T14:08:30;23.65;;;13.27;;
53718;SDS011;39616;48.872;9.390;2023-03-01T14:11:06;20.33;;;11.50;;
53718;SDS011;39616;48.872;9.390;2023-03-01T14:19:28;20.58;;;11.95;;
53718;SDS011;39616;48.872;9.390;2023-03-01T14:24:54;21.98;;;12.00;;
53718;SDS011;39616;48.872;9.390;2023-03-01T14:27:37;25.70;;;14.07;;
53718;SDS011;39616;48.872;9.390;2023-03-01T14:30:17;27.02;;;13.57;;
53718;SDS011;39616;48.872;9.390;2023-03-01T14:33:01;26.80;;;13.55;;
53718;SDS011;39616;48.872;9.390;2023-03-01T14:35:35;24.30;;;13.15;;
53718;SDS011;39616;48.872;9.390;2023-03-01T14:38:19;24.67;;;13.63;;
53718;SDS011;39616;48.872;9.390;2023-03-01T14:40:52;27.45;;;13.75;;
53718;SDS011;39616;48.872;9.390;2023-03-01T14:43:27;24.20;;;13.07;;
53718;SDS011;39616;48.872;9.390;2023-03-01T14:46:00;24.40;;;13.35;;
53718;SDS011;39616;48.872;9.390;2023-03-01T14:48:30;27.42;;;13.40;;
53718;SDS011;39616;48.872;9.390;2023-03-01T14:51:01;25.52;;;13.52;;
53718;SDS011;39616;48.872;9.390;2023-03-01T14:53:35;24.60;;;12.45;;
53718;SDS011;39616;48.872;9.390;2023-03-01T14:56:12;22.77;;;12.52;;
53718;SDS011;39616;48.872;9.390;2023-03-01T14:58:43;21.80;;;12.18;;
53718;SDS011;39616;48.872;9.390;2023-03-01T15:01:14;25.48;;;13.13;;
53718;SDS011;39616;48.872;9.390;2023-03-01T15:03:47;28.80;;;12.77;;
53718;SDS011;39616;48.872;9.390;2023-03-01T15:06:20;24.70;;;13.45;;
53718;SDS011;39616;48.872;9.390;2023-03-01T15:08:53;27.58;;;13.15;;
53718;SDS011;39616;48.872;9.390;2023-03-01T15:11:28;27.85;;;12.52;;
53718;SDS011;39616;48.872;9.390;2023-03-01T15:14:00;24.52;;;13.55;;
53718;SDS011;39616;48.872;9.390;2023-03-01T15:16:31;24.50;;;13.38;;
53718;SDS011;39616;48.872;9.390;2023-03-01T15:19:04;26.23;;;13.27;;
53718;SDS011;39616;48.872;9.390;2023-03-01T15:21:37;25.20;;;13.55;;
53718;SDS011;39616;48.872;9.390;2023-03-01T15:26:42;28.02;;;13.35;;
53718;SDS011;39616;48.872;9.390;2023-03-01T15:29:16;24.38;;;12.68;;
53718;SDS011;39616;48.872;9.390;2023-03-01T15:31:56;22.17;;;11.88;;
53718;SDS011;39616;48.872;9.390;2023-03-01T15:37:02;24.35;;;12.23;;
53718;SDS011;39616;48.872;9.390;2023-03-01T15:39:39;25.38;;;13.45;;
53718;SDS011;39616;48.872;9.390;2023-03-01T15:42:58;24.88;;;11.70;;
53718;SDS011;39616;48.872;9.390;2023-03-01T15:45:23;20.42;;;11.20;;
53718;SDS011;39616;48.872;9.390;2023-03-01T15:47:57;21.15;;;12.65;;
53718;SDS011;39616;48.872;9.390;2023-03-01T15:50:34;33.67;;;12.57;;
53718;SDS011;39616;48.872;9.390;2023-03-01T15:53:10;19.95;;;11.25;;
53718;SDS011;39616;48.872;9.390;2023-03-01T15:55:44;26.40;;;12.18;;
53718;SDS011;39616;48.872;9.390;2023-03-01T15:58:17;22.48;;;12.00;;
53718;SDS011;39616;48.872;9.390;2023-03-01T16:00:50;23.13;;;11.70;;
53718;SDS011;39616;48.872;9.390;2023-03-01T16:03:26;23.67;;;11.57;;
53718;SDS011;39616;48.872;9.390;2023-03-01T16:05:56;23.67;;;12.05;;
53718;SDS011;39616;48.872;9.390;2023-03-01T16:08:26;24.10;;;11.68;;
53718;SDS011;39616;48.872;9.390;2023-03-01T16:10:57;23.83;;;12.65;;
53718;SDS011;39616;48.872;9.390;2023-03-01T16:13:27;25.17;;;12.27;;
53718;SDS011;39616;48.872;9.390;2023-03-01T16:15:58;23.88;;;11.95;;
53718;SDS011;39616;48.872;9.390;2023-03-01T16:18:29;26.20;;;12.38;;
53718;SDS011;39616;48.872;9.390;2023-03-01T16:20:59;26.00;;;12.40;;
53718;SDS011;39616;48.872;9.390;2023-03-01T16:23:30;22.45;;;11.45;;
53718;SDS011;39616;48.872;9.390;2023-03-01T16:26:00;25.50;;;13.68;;
53718;SDS011;39616;48.872;9.390;2023-03-01T16:28:30;22.60;;;12.45;;
53718;SDS011;39616;48.872;9.390;2023-03-01T16:31:01;24.65;;;12.25;;
53718;SDS011;39616;48.872;9.390;2023-03-01T16:33:31;24.90;;;12.95;;
53718;SDS011;39616;48.872;9.390;2023-03-01T16:36:09;26.15;;;13.20;;
53718;SDS011;39616;48.872;9.390;2023-03-01T16:38:41;24.40;;;11.70;;
53718;SDS011;39616;48.872;9.390;2023-03-01T16:41:13;23.73;;;12.27;;
53718;SDS011;39616;48.872;9.390;2023-03-01T16:43:45;22.48;;;10.95;;
53718;SDS011;39616;48.872;9.390;2023-03-01T16:46:20;25.63;;;11.95;;
53718;SDS011;39616;48.872;9.390;2023-03-01T16:48:55;24.67;;;11.55;;
53718;SDS011;39616;48.872;9.390;2023-03-01T16:51:26;25.05;;;11.88;;
53718;SDS011;39616;48.872;9.390;2023-03-01T16:53:56;22.80;;;11.60;;
53718;SDS011;39616;48.872;9.390;2023-03-01T16:56:26;27.35;;;11.25;;
53718;SDS011;39616;48.872;9.390;2023-03-01T16:58:57;23.60;;;12.40;;
53718;SDS011;39616;48.872;9.390;2023-03-01T17:01:27;22.77;;;11.65;;